KCUH/CUH METAR and TAF weather

Enter ICAO airport designator
Station Type Date Time Source
KCUH METAR 2020/09/24 11:15 UTC NOAA

KCUH 241115Z AUTO 00000KT 1/2SM FG BKN002 12/12 A2995 RMK AO2 T01170117


Station Type Date Time Source
KCUH Decoded METAR 2020/09/24 11:15 UTC NOAA

Cushing, Cushing Municipal Airport, OK, United States (KCUH) 35-56-59N 096-46-22W
Sep 24, 2020 - 07:15 AM EDT / 2020.09.24 1115 UTC
Wind: Calm:0
Visibility: 1/2 mile(s):0
Sky conditions: mostly cloudy
Weather: fog
Temperature: 53.1 F (11.7 C)
Dew Point: 53.1 F (11.7 C)
Relative Humidity: 100%
Pressure (altimeter): 29.95 in. Hg (1014 hPa)
ob: KCUH 241115Z AUTO 00000KT 1/2SM FG BKN002 12/12 A2995 RMK AO2 T01170117
cycle: 11

Station Type Date Time Source
KCUH TAF UTC NOAA

Error!

Example: see airport list